sensor_id;sensor_type;location;lat;lon;timestamp;pressure;altitude;pressure_sealevel;temperature;humidity
24302;BME280;12421;49.732;20.078;2023-04-01T00:01:22;95117.41;;;9.46;68.80
24302;BME280;12421;49.732;20.078;2023-04-01T00:11:25;95104.32;;;9.25;69.00
24302;BME280;12421;49.732;20.078;2023-04-01T00:21:30;95102.17;;;9.01;68.95
24302;BME280;12421;49.732;20.078;2023-04-01T00:31:33;95098.35;;;8.85;68.79
24302;BME280;12421;49.732;20.078;2023-04-01T00:41:37;95098.52;;;8.59;68.91
24302;BME280;12421;49.732;20.078;2023-04-01T00:51:42;95097.55;;;8.29;69.25
24302;BME280;12421;49.732;20.078;2023-04-01T01:01:49;95099.77;;;8.02;69.61
24302;BME280;12421;49.732;20.078;2023-04-01T01:12:00;95102.79;;;7.65;70.47
24302;BME280;12421;49.732;20.078;2023-04-01T01:32:54;95118.99;;;7.04;72.12
24302;BME280;12421;49.732;20.078;2023-04-01T01:43:08;95126.55;;;6.75;72.75
24302;BME280;12421;49.732;20.078;2023-04-01T01:53:13;95133.79;;;6.58;73.17
24302;BME280;12421;49.732;20.078;2023-04-01T02:03:19;95127.96;;;6.39;74.14
24302;BME280;12421;49.732;20.078;2023-04-01T02:13:33;95132.05;;;6.29;74.74
24302;BME280;12421;49.732;20.078;2023-04-01T02:23:37;95143.48;;;6.39;75.13
24302;BME280;12421;49.732;20.078;2023-04-01T02:33:43;95147.67;;;6.53;75.60
24302;BME280;12421;49.732;20.078;2023-04-01T02:43:46;95157.33;;;6.65;75.47
24302;BME280;12421;49.732;20.078;2023-04-01T02:53:52;95157.71;;;6.77;75.62
24302;BME280;12421;49.732;20.078;2023-04-01T03:03:55;95164.44;;;6.87;75.73
24302;BME280;12421;49.732;20.078;2023-04-01T03:13:58;95165.09;;;6.89;75.86
24302;BME280;12421;49.732;20.078;2023-04-01T03:24:02;95163.89;;;6.88;75.92
24302;BME280;12421;49.732;20.078;2023-04-01T03:34:06;95164.48;;;6.99;76.04
24302;BME280;12421;49.732;20.078;2023-04-01T03:44:10;95168.33;;;6.98;76.31
24302;BME280;12421;49.732;20.078;2023-04-01T03:54:13;95167.00;;;7.02;76.68
24302;BME280;12421;49.732;20.078;2023-04-01T04:04:18;95172.77;;;7.10;77.16
24302;BME280;12421;49.732;20.078;2023-04-01T04:14:23;95181.52;;;7.15;77.44
24302;BME280;12421;49.732;20.078;2023-04-01T04:24:27;95176.97;;;7.22;77.66
24302;BME280;12421;49.732;20.078;2023-04-01T04:34:36;95179.07;;;7.35;77.81
24302;BME280;12421;49.732;20.078;2023-04-01T04:44:41;95177.99;;;7.55;77.69
24302;BME280;12421;49.732;20.078;2023-04-01T04:54:44;95164.91;;;7.74;77.72
24302;BME280;12421;49.732;20.078;2023-04-01T05:04:47;95170.32;;;7.86;77.36
24302;BME280;12421;49.732;20.078;2023-04-01T05:14:51;95173.97;;;7.87;77.28
24302;BME280;12421;49.732;20.078;2023-04-01T05:24:55;95193.20;;;8.04;78.19
24302;BME280;12421;49.732;20.078;2023-04-01T05:34:59;95199.63;;;8.23;78.56
24302;BME280;12421;49.732;20.078;2023-04-01T05:45:02;95203.67;;;8.46;78.90
24302;BME280;12421;49.732;20.078;2023-04-01T05:55:24;95199.36;;;8.78;79.13
24302;BME280;12421;49.732;20.078;2023-04-01T06:05:30;95197.39;;;8.96;79.22
24302;BME280;12421;49.732;20.078;2023-04-01T06:15:53;95199.59;;;9.34;79.72
24302;BME280;12421;49.732;20.078;2023-04-01T06:26:34;95199.59;;;10.09;79.36
24302;BME280;12421;49.732;20.078;2023-04-01T06:57:56;95195.77;;;11.36;76.47
24302;BME280;12421;49.732;20.078;2023-04-01T07:08:11;95185.98;;;12.23;75.36
24302;BME280;12421;49.732;20.078;2023-04-01T07:18:19;95173.67;;;13.99;71.90
24302;BME280;12421;49.732;20.078;2023-04-01T07:28:30;95174.70;;;14.76;66.53
24302;BME280;12421;49.732;20.078;2023-04-01T07:39:06;95178.61;;;14.62;64.72
24302;BME280;12421;49.732;20.078;2023-04-01T08:00:18;95183.66;;;16.07;60.39
24302;BME280;12421;49.732;20.078;2023-04-01T08:10:41;95189.33;;;15.78;59.34
24302;BME280;12421;49.732;20.078;2023-04-01T08:21:18;95188.77;;;15.05;59.20
24302;BME280;12421;49.732;20.078;2023-04-01T08:31:35;95180.82;;;14.92;58.93
24302;BME280;12421;49.732;20.078;2023-04-01T08:42:18;95186.45;;;14.93;58.78
24302;BME280;12421;49.732;20.078;2023-04-01T08:52:41;95187.89;;;14.80;59.30
24302;BME280;12421;49.732;20.078;2023-04-01T09:34:30;95179.63;;;13.97;59.18
24302;BME280;12421;49.732;20.078;2023-04-01T09:44:58;95181.28;;;14.03;58.16
24302;BME280;12421;49.732;20.078;2023-04-01T09:55:25;95185.39;;;14.38;58.33
24302;BME280;12421;49.732;20.078;2023-04-01T10:37:57;95191.16;;;16.18;53.84
24302;BME280;12421;49.732;20.078;2023-04-01T10:59:31;95209.06;;;15.55;53.91
24302;BME280;12421;49.732;20.078;2023-04-01T11:10:25;95213.12;;;15.73;53.95
24302;BME280;12421;49.732;20.078;2023-04-01T11:31:50;95218.73;;;15.09;53.21
24302;BME280;12421;49.732;20.078;2023-04-01T12:28:25;95230.02;;;15.63;53.85
24302;BME280;12421;49.732;20.078;2023-04-01T13:12:10;95251.74;;;15.42;55.30
24302;BME280;12421;49.732;20.078;2023-04-01T13:33:36;95254.02;;;15.32;55.01
24302;BME280;12421;49.732;20.078;2023-04-01T13:44:21;95248.15;;;15.33;54.99
24302;BME280;12421;49.732;20.078;2023-04-01T14:05:32;95252.48;;;14.84;55.70
24302;BME280;12421;49.732;20.078;2023-04-01T14:27:46;95281.33;;;14.23;58.40
24302;BME280;12421;49.732;20.078;2023-04-01T15:00:27;95284.28;;;14.61;58.24
24302;BME280;12421;49.732;20.078;2023-04-01T15:11:10;95286.87;;;14.11;58.73
24302;BME280;12421;49.732;20.078;2023-04-01T15:44:00;95307.22;;;13.64;59.34
24302;BME280;12421;49.732;20.078;2023-04-01T16:27:47;95351.11;;;12.38;60.74
24302;BME280;12421;49.732;20.078;2023-04-01T16:38:33;95364.27;;;12.14;61.58
24302;BME280;12421;49.732;20.078;2023-04-01T17:00:28;95383.23;;;11.73;63.35
24302;BME280;12421;49.732;20.078;2023-04-01T18:05:46;95485.86;;;10.52;70.19
24302;BME280;12421;49.732;20.078;2023-04-01T18:38:48;95519.61;;;10.24;73.44
24302;BME280;12421;49.732;20.078;2023-04-01T19:00:48;95544.89;;;9.94;74.69
24302;BME280;12421;49.732;20.078;2023-04-01T19:11:56;95547.41;;;9.98;75.50
24302;BME280;12421;49.732;20.078;2023-04-01T19:34:14;95560.02;;;9.81;76.62
24302;BME280;12421;49.732;20.078;2023-04-01T19:46:08;95571.89;;;9.77;77.25
24302;BME280;12421;49.732;20.078;2023-04-01T20:19:06;95605.13;;;10.03;77.36
24302;BME280;12421;49.732;20.078;2023-04-01T21:57:54;95655.14;;;9.76;78.94
24302;BME280;12421;49.732;20.078;2023-04-01T22:30:38;95664.42;;;9.58;79.44
24302;BME280;12421;49.732;20.078;2023-04-01T22:41:41;95673.20;;;9.63;79.63
24302;BME280;12421;49.732;20.078;2023-04-01T22:52:42;95677.83;;;9.67;79.81
24302;BME280;12421;49.732;20.078;2023-04-01T23:03:33;95682.48;;;9.76;79.57
24302;BME280;12421;49.732;20.078;2023-04-01T23:25:03;95692.73;;;9.54;80.24
24302;BME280;12421;49.732;20.078;2023-04-01T23:35:49;95698.14;;;9.55;80.30
24302;BME280;12421;49.732;20.078;2023-04-01T23:58:05;95704.38;;;9.51;80.66
